sensor_id;sensor_type;location;lat;lon;timestamp;pressure;altitude;pressure_sealevel;temperature;humidity
46291;BME280;32023;44.444;26.006;2023-03-21T00:01:06;100357.31;;;9.47;65.04
46291;BME280;32023;44.444;26.006;2023-03-21T00:03:33;100360.91;;;9.47;65.17
46291;BME280;32023;44.444;26.006;2023-03-21T00:06:09;100356.47;;;9.46;65.33
46291;BME280;32023;44.444;26.006;2023-03-21T00:08:44;100365.03;;;9.50;65.14
46291;BME280;32023;44.444;26.006;2023-03-21T00:11:10;100362.28;;;9.50;65.00
46291;BME280;32023;44.444;26.006;2023-03-21T00:13:37;100363.97;;;9.51;65.11
46291;BME280;32023;44.444;26.006;2023-03-21T00:16:24;100363.97;;;9.51;65.32
46291;BME280;32023;44.444;26.006;2023-03-21T00:18:52;100359.22;;;9.46;65.39
46291;BME280;32023;44.444;26.006;2023-03-21T00:21:19;100358.63;;;9.44;65.31
46291;BME280;32023;44.444;26.006;2023-03-21T00:23:46;100359.75;;;9.43;65.91
46291;BME280;32023;44.444;26.006;2023-03-21T00:26:15;100364.13;;;9.44;65.56
46291;BME280;32023;44.444;26.006;2023-03-21T00:28:42;100365.22;;;9.43;65.70
46291;BME280;32023;44.444;26.006;2023-03-21T00:31:11;100359.13;;;9.41;65.66
46291;BME280;32023;44.444;26.006;2023-03-21T00:33:37;100367.38;;;9.41;65.72
46291;BME280;32023;44.444;26.006;2023-03-21T00:36:04;100368.50;;;9.40;65.89
46291;BME280;32023;44.444;26.006;2023-03-21T00:38:31;100362.63;;;9.37;66.07
46291;BME280;32023;44.444;26.006;2023-03-21T00:40:57;100356.81;;;9.33;66.34
46291;BME280;32023;44.444;26.006;2023-03-21T00:43:23;100349.09;;;9.30;66.14
46291;BME280;32023;44.444;26.006;2023-03-21T00:45:55;100351.25;;;9.28;66.39
46291;BME280;32023;44.444;26.006;2023-03-21T00:48:21;100347.91;;;9.26;66.70
46291;BME280;32023;44.444;26.006;2023-03-21T00:50:48;100340.78;;;9.25;66.61
46291;BME280;32023;44.444;26.006;2023-03-21T00:53:18;100339.63;;;9.21;66.72
46291;BME280;32023;44.444;26.006;2023-03-21T00:55:45;100340.94;;;9.18;66.88
46291;BME280;32023;44.444;26.006;2023-03-21T00:58:11;100345.88;;;9.16;66.85
46291;BME280;32023;44.444;26.006;2023-03-21T01:00:37;100344.19;;;9.15;67.03
46291;BME280;32023;44.444;26.006;2023-03-21T01:03:10;100348.59;;;9.16;67.23
46291;BME280;32023;44.444;26.006;2023-03-21T01:05:37;100343.34;;;9.15;67.14
46291;BME280;32023;44.444;26.006;2023-03-21T01:10:53;100335.06;;;9.10;67.39
46291;BME280;32023;44.444;26.006;2023-03-21T01:13:24;100329.47;;;9.05;67.58
46291;BME280;32023;44.444;26.006;2023-03-21T01:18:30;100323.31;;;8.98;68.01
46291;BME280;32023;44.444;26.006;2023-03-21T01:20:58;100330.97;;;8.96;67.98
46291;BME280;32023;44.444;26.006;2023-03-21T01:23:27;100320.72;;;8.91;68.15
46291;BME280;32023;44.444;26.006;2023-03-21T01:25:57;100319.31;;;8.89;68.44
46291;BME280;32023;44.444;26.006;2023-03-21T01:28:27;100317.31;;;8.84;68.54
46291;BME280;32023;44.444;26.006;2023-03-21T01:30:56;100309.00;;;8.79;68.96
46291;BME280;32023;44.444;26.006;2023-03-21T01:33:22;100309.75;;;8.75;69.25
46291;BME280;32023;44.444;26.006;2023-03-21T01:35:53;100311.09;;;8.72;69.18
46291;BME280;32023;44.444;26.006;2023-03-21T01:38:19;100311.84;;;8.67;69.61
46291;BME280;32023;44.444;26.006;2023-03-21T01:40:48;100317.31;;;8.67;69.66
46291;BME280;32023;44.444;26.006;2023-03-21T01:43:26;100311.84;;;8.67;69.63
46291;BME280;32023;44.444;26.006;2023-03-21T01:48:35;100303.59;;;8.67;69.77
46291;BME280;32023;44.444;26.006;2023-03-21T01:51:04;100301.34;;;8.64;69.83
46291;BME280;32023;44.444;26.006;2023-03-21T01:53:30;100296.84;;;8.58;70.27
46291;BME280;32023;44.444;26.006;2023-03-21T01:55:59;100292.34;;;8.52;70.85
46291;BME280;32023;44.444;26.006;2023-03-21T01:58:28;100284.03;;;8.47;71.12
46291;BME280;32023;44.444;26.006;2023-03-21T02:00:54;100285.38;;;8.45;71.43
46291;BME280;32023;44.444;26.006;2023-03-21T02:03:24;100279.03;;;8.44;71.79
46291;BME280;32023;44.444;26.006;2023-03-21T02:05:58;100283.69;;;8.44;71.95
46291;BME280;32023;44.444;26.006;2023-03-21T02:08:29;100279.59;;;8.46;71.82
46291;BME280;32023;44.444;26.006;2023-03-21T02:10:56;100280.13;;;8.43;72.27
46291;BME280;32023;44.444;26.006;2023-03-21T02:13:22;100280.63;;;8.40;73.06
46291;BME280;32023;44.444;26.006;2023-03-21T02:29:21;100260.72;;;8.33;74.09
46291;BME280;32023;44.444;26.006;2023-03-21T02:37:15;100288.31;;;8.27;74.42
46291;BME280;32023;44.444;26.006;2023-03-21T02:42:52;100284.28;;;8.17;74.56
46291;BME280;32023;44.444;26.006;2023-03-21T02:45:24;100291.09;;;8.15;74.17
46291;BME280;32023;44.444;26.006;2023-03-21T02:50:55;100296.81;;;8.13;74.16
46291;BME280;32023;44.444;26.006;2023-03-21T02:53:36;100296.72;;;8.08;74.30
46291;BME280;32023;44.444;26.006;2023-03-21T02:56:05;100289.72;;;8.01;74.34
46291;BME280;32023;44.444;26.006;2023-03-21T02:58:35;100282.47;;;7.95;74.59
46291;BME280;32023;44.444;26.006;2023-03-21T03:01:06;100291.69;;;7.89;74.99
46291;BME280;32023;44.444;26.006;2023-03-21T03:03:34;100293.81;;;7.87;75.23
46291;BME280;32023;44.444;26.006;2023-03-21T03:06:18;100292.16;;;7.86;75.19
46291;BME280;32023;44.444;26.006;2023-03-21T03:11:43;100298.97;;;7.83;75.42
46291;BME280;32023;44.444;26.006;2023-03-21T03:19:29;100293.28;;;7.73;75.50
46291;BME280;32023;44.444;26.006;2023-03-21T03:22:00;100289.72;;;7.72;75.97
46291;BME280;32023;44.444;26.006;2023-03-21T03:29:36;100290.19;;;7.69;76.24
46291;BME280;32023;44.444;26.006;2023-03-21T03:32:05;100295.19;;;7.72;76.12
46291;BME280;32023;44.444;26.006;2023-03-21T03:34:34;100297.94;;;7.72;76.35
46291;BME280;32023;44.444;26.006;2023-03-21T03:37:13;100299.25;;;7.70;76.38
46291;BME280;32023;44.444;26.006;2023-03-21T03:39:45;100303.06;;;7.69;76.77
46291;BME280;32023;44.444;26.006;2023-03-21T03:42:16;100309.03;;;7.66;76.69
46291;BME280;32023;44.444;26.006;2023-03-21T03:44:43;100307.59;;;7.63;76.93
46291;BME280;32023;44.444;26.006;2023-03-21T03:47:10;100307.03;;;7.61;77.14
46291;BME280;32023;44.444;26.006;2023-03-21T03:49:38;100310.81;;;7.60;77.26
46291;BME280;32023;44.444;26.006;2023-03-21T03:52:11;100304.50;;;7.60;77.00
46291;BME280;32023;44.444;26.006;2023-03-21T03:54:44;100311.44;;;7.62;77.23
46291;BME280;32023;44.444;26.006;2023-03-21T03:57:12;100307.84;;;7.62;77.07
46291;BME280;32023;44.444;26.006;2023-03-21T03:59:40;100317.50;;;7.64;77.16
46291;BME280;32023;44.444;26.006;2023-03-21T04:02:11;100314.53;;;7.66;77.36
46291;BME280;32023;44.444;26.006;2023-03-21T04:04:37;100314.88;;;7.69;76.96
46291;BME280;32023;44.444;26.006;2023-03-21T04:07:03;100311.03;;;7.70;77.12
46291;BME280;32023;44.444;26.006;2023-03-21T04:09:34;100314.38;;;7.72;76.88
46291;BME280;32023;44.444;26.006;2023-03-21T04:15:31;100311.97;;;7.76;76.97
46291;BME280;32023;44.444;26.006;2023-03-21T04:17:57;100319.13;;;7.77;77.02
46291;BME280;32023;44.444;26.006;2023-03-21T04:20:24;100304.94;;;7.80;76.72
46291;BME280;32023;44.444;26.006;2023-03-21T04:22:50;100312.44;;;7.85;76.52
46291;BME280;32023;44.444;26.006;2023-03-21T04:25:17;100314.56;;;7.83;76.76
46291;BME280;32023;44.444;26.006;2023-03-21T04:27:43;100315.19;;;7.85;76.53
46291;BME280;32023;44.444;26.006;2023-03-21T04:30:11;100311.34;;;7.86;76.45
46291;BME280;32023;44.444;26.006;2023-03-21T04:32:40;100323.97;;;7.87;76.35
46291;BME280;32023;44.444;26.006;2023-03-21T04:35:08;100321.84;;;7.89;76.45
46291;BME280;32023;44.444;26.006;2023-03-21T04:37:35;100319.09;;;7.89;76.33
46291;BME280;32023;44.444;26.006;2023-03-21T04:40:04;100321.84;;;7.89;76.16
46291;BME280;32023;44.444;26.006;2023-03-21T04:42:32;100328.97;;;7.90;76.30
46291;BME280;32023;44.444;26.006;2023-03-21T04:44:59;100330.41;;;7.92;76.17
46291;BME280;32023;44.444;26.006;2023-03-21T04:47:28;100326.22;;;7.90;76.42
46291;BME280;32023;44.444;26.006;2023-03-21T04:49:54;100317.78;;;7.91;76.56
46291;BME280;32023;44.444;26.006;2023-03-21T04:52:22;100316.38;;;7.89;76.48
46291;BME280;32023;44.444;26.006;2023-03-21T04:54:48;100310.63;;;7.90;76.59
46291;BME280;32023;44.444;26.006;2023-03-21T04:57:14;100314.81;;;7.93;76.54
46291;BME280;32023;44.444;26.006;2023-03-21T04:59:41;100316.44;;;7.94;76.79
46291;BME280;32023;44.444;26.006;2023-03-21T05:02:08;100308.91;;;8.01;76.92
46291;BME280;32023;44.444;26.006;2023-03-21T05:04:34;100302.47;;;8.07;76.96
46291;BME280;32023;44.444;26.006;2023-03-21T05:07:03;100298.16;;;8.11;76.76
46291;BME280;32023;44.444;26.006;2023-03-21T05:09:29;100303.38;;;8.12;76.71
46291;BME280;32023;44.444;26.006;2023-03-21T05:11:56;100302.06;;;8.15;76.69
46291;BME280;32023;44.444;26.006;2023-03-21T05:14:25;100291.78;;;8.22;76.48
46291;BME280;32023;44.444;26.006;2023-03-21T05:16:57;100296.63;;;8.32;76.36
46291;BME280;32023;44.444;26.006;2023-03-21T05:19:31;100292.66;;;8.39;76.01
46291;BME280;32023;44.444;26.006;2023-03-21T05:22:04;100285.88;;;8.42;75.86
46291;BME280;32023;44.444;26.006;2023-03-21T05:24:32;100289.91;;;8.39;75.62
46291;BME280;32023;44.444;26.006;2023-03-21T05:27:08;100290.50;;;8.41;75.53
46291;BME280;32023;44.444;26.006;2023-03-21T05:35:53;100303.00;;;8.65;75.40
46291;BME280;32023;44.444;26.006;2023-03-21T05:41:21;100305.06;;;8.92;74.28
46291;BME280;32023;44.444;26.006;2023-03-21T05:46:51;100309.22;;;9.11;73.43
46291;BME280;32023;44.444;26.006;2023-03-21T05:49:35;100296.97;;;9.18;72.86
46291;BME280;32023;44.444;26.006;2023-03-21T05:55:00;100312.94;;;9.38;72.51
46291;BME280;32023;44.444;26.006;2023-03-21T05:57:40;100313.91;;;9.49;72.30
46291;BME280;32023;44.444;26.006;2023-03-21T06:03:29;100307.84;;;9.68;71.23
46291;BME280;32023;44.444;26.006;2023-03-21T06:05:59;100310.28;;;9.65;70.40
46291;BME280;32023;44.444;26.006;2023-03-21T06:08:36;100314.19;;;9.69;70.22
46291;BME280;32023;44.444;26.006;2023-03-21T06:11:02;100319.41;;;9.71;70.26
46291;BME280;32023;44.444;26.006;2023-03-21T06:13:29;100305.72;;;9.76;69.75
46291;BME280;32023;44.444;26.006;2023-03-21T06:16:03;100313.47;;;9.79;69.48
46291;BME280;32023;44.444;26.006;2023-03-21T06:18:32;100317.13;;;9.84;69.34
46291;BME280;32023;44.444;26.006;2023-03-21T06:21:05;100310.06;;;9.93;69.30
46291;BME280;32023;44.444;26.006;2023-03-21T06:23:37;100318.19;;;10.05;68.81
46291;BME280;32023;44.444;26.006;2023-03-21T06:26:11;100317.16;;;10.11;68.70
46291;BME280;32023;44.444;26.006;2023-03-21T06:29:00;100312.72;;;10.27;68.15
46291;BME280;32023;44.444;26.006;2023-03-21T06:31:44;100312.28;;;10.40;67.65
46291;BME280;32023;44.444;26.006;2023-03-21T06:34:12;100314.34;;;10.54;67.19
46291;BME280;32023;44.444;26.006;2023-03-21T06:36:43;100329.94;;;10.71;66.65
46291;BME280;32023;44.444;26.006;2023-03-21T06:39:11;100340.84;;;10.92;66.04
46291;BME280;32023;44.444;26.006;2023-03-21T06:41:41;100350.72;;;11.20;65.37
46291;BME280;32023;44.444;26.006;2023-03-21T06:47:44;100346.19;;;11.78;62.85
46291;BME280;32023;44.444;26.006;2023-03-21T06:50:30;100342.91;;;11.91;61.78
46291;BME280;32023;44.444;26.006;2023-03-21T06:53:04;100350.94;;;11.97;61.82
46291;BME280;32023;44.444;26.006;2023-03-21T06:55:30;100349.06;;;12.08;60.92
46291;BME280;32023;44.444;26.006;2023-03-21T06:57:58;100350.75;;;12.14;60.68
46291;BME280;32023;44.444;26.006;2023-03-21T07:00:25;100350.50;;;12.26;60.90
46291;BME280;32023;44.444;26.006;2023-03-21T07:02:51;100349.13;;;12.28;59.46
46291;BME280;32023;44.444;26.006;2023-03-21T07:05:24;100347.50;;;12.32;59.71
46291;BME280;32023;44.444;26.006;2023-03-21T07:08:05;100360.22;;;12.38;59.60
46291;BME280;32023;44.444;26.006;2023-03-21T07:13:27;100367.72;;;12.53;59.19
46291;BME280;32023;44.444;26.006;2023-03-21T07:31:11;100354.66;;;13.90;54.76
46291;BME280;32023;44.444;26.006;2023-03-21T09:03:04;100320.84;;;20.10;36.87
46291;BME280;32023;44.444;26.006;2023-03-21T09:11:37;100315.88;;;20.81;35.26
46291;BME280;32023;44.444;26.006;2023-03-21T09:14:26;100302.38;;;20.57;35.40
46291;BME280;32023;44.444;26.006;2023-03-21T09:17:06;100297.59;;;20.49;35.66
46291;BME280;32023;44.444;26.006;2023-03-21T09:22:31;100297.75;;;20.70;35.67
46291;BME280;32023;44.444;26.006;2023-03-21T09:45:11;100298.19;;;23.49;31.15
46291;BME280;32023;44.444;26.006;2023-03-21T09:48:06;100299.78;;;24.08;29.98
46291;BME280;32023;44.444;26.006;2023-03-21T09:50:46;100298.91;;;24.16;29.51
46291;BME280;32023;44.444;26.006;2023-03-21T09:56:15;100296.47;;;25.77;27.62
46291;BME280;32023;44.444;26.006;2023-03-21T09:58:51;100299.47;;;26.66;26.52
46291;BME280;32023;44.444;26.006;2023-03-21T10:01:27;100302.50;;;27.31;25.31
46291;BME280;32023;44.444;26.006;2023-03-21T10:06:43;100303.06;;;28.50;23.58
46291;BME280;32023;44.444;26.006;2023-03-21T10:09:23;100296.78;;;29.24;22.45
46291;BME280;32023;44.444;26.006;2023-03-21T10:12:29;100290.22;;;29.86;21.90
46291;BME280;32023;44.444;26.006;2023-03-21T10:14:58;100287.03;;;30.42;20.85
46291;BME280;32023;44.444;26.006;2023-03-21T10:22:39;100290.06;;;32.56;19.19
46291;BME280;32023;44.444;26.006;2023-03-21T10:25:09;100292.97;;;32.38;18.90
46291;BME280;32023;44.444;26.006;2023-03-21T10:27:41;100291.75;;;32.11;19.40
46291;BME280;32023;44.444;26.006;2023-03-21T10:35:59;100289.75;;;29.44;21.93
46291;BME280;32023;44.444;26.006;2023-03-21T10:38:40;100280.56;;;29.24;22.10
46291;BME280;32023;44.444;26.006;2023-03-21T10:50:15;100264.00;;;33.59;18.05
46291;BME280;32023;44.444;26.006;2023-03-21T10:53:02;100270.53;;;34.59;16.92
46291;BME280;32023;44.444;26.006;2023-03-21T10:58:33;100273.31;;;34.28;17.12
46291;BME280;32023;44.444;26.006;2023-03-21T11:03:53;100264.44;;;31.78;19.26
46291;BME280;32023;44.444;26.006;2023-03-21T11:16:44;100274.81;;;29.50;21.67
46291;BME280;32023;44.444;26.006;2023-03-21T11:19:18;100272.47;;;30.00;21.14
46291;BME280;32023;44.444;26.006;2023-03-21T11:21:46;100272.41;;;29.93;21.22
46291;BME280;32023;44.444;26.006;2023-03-21T11:24:35;100259.84;;;29.20;21.95
46291;BME280;32023;44.444;26.006;2023-03-21T11:27:05;100264.44;;;28.12;23.01
46291;BME280;32023;44.444;26.006;2023-03-21T11:29:37;100256.91;;;27.13;24.15
46291;BME280;32023;44.444;26.006;2023-03-21T11:32:21;100253.78;;;26.26;25.11
46291;BME280;32023;44.444;26.006;2023-03-21T11:42:58;100235.69;;;24.65;27.57
46291;BME280;32023;44.444;26.006;2023-03-21T11:45:37;100230.72;;;24.47;27.76
46291;BME280;32023;44.444;26.006;2023-03-21T11:48:16;100232.53;;;24.15;28.34
46291;BME280;32023;44.444;26.006;2023-03-21T11:50:48;100231.59;;;23.86;28.54
46291;BME280;32023;44.444;26.006;2023-03-21T12:07:03;100220.50;;;22.46;30.60
46291;BME280;32023;44.444;26.006;2023-03-21T12:09:40;100217.22;;;22.24;31.00
46291;BME280;32023;44.444;26.006;2023-03-21T12:12:32;100215.28;;;22.16;31.13
46291;BME280;32023;44.444;26.006;2023-03-21T12:17:36;100208.16;;;21.97;31.35
46291;BME280;32023;44.444;26.006;2023-03-21T12:20:15;100212.25;;;22.00;31.43
46291;BME280;32023;44.444;26.006;2023-03-21T12:45:22;100182.19;;;22.09;31.94
46291;BME280;32023;44.444;26.006;2023-03-21T12:51:02;100181.41;;;22.00;32.22
46291;BME280;32023;44.444;26.006;2023-03-21T12:57:32;100175.38;;;21.81;32.86
46291;BME280;32023;44.444;26.006;2023-03-21T13:03:07;100167.03;;;21.72;33.19
46291;BME280;32023;44.444;26.006;2023-03-21T13:05:54;100167.75;;;21.60;33.57
46291;BME280;32023;44.444;26.006;2023-03-21T13:08:40;100161.91;;;21.45;33.97
46291;BME280;32023;44.444;26.006;2023-03-21T13:14:15;100150.78;;;21.28;34.46
46291;BME280;32023;44.444;26.006;2023-03-21T13:16:48;100142.41;;;21.19;34.67
46291;BME280;32023;44.444;26.006;2023-03-21T13:19:36;100150.69;;;20.98;35.24
46291;BME280;32023;44.444;26.006;2023-03-21T13:22:09;100143.44;;;20.97;35.08
46291;BME280;32023;44.444;26.006;2023-03-21T13:24:41;100139.69;;;20.85;35.28
46291;BME280;32023;44.444;26.006;2023-03-21T13:27:59;100133.84;;;20.69;35.45
46291;BME280;32023;44.444;26.006;2023-03-21T13:32:44;100130.41;;;20.38;35.83
46291;BME280;32023;44.444;26.006;2023-03-21T13:37:41;100118.53;;;20.06;36.23
46291;BME280;32023;44.444;26.006;2023-03-21T13:46:11;100113.22;;;19.53;36.92
46291;BME280;32023;44.444;26.006;2023-03-21T14:03:19;100106.91;;;18.91;38.35
46291;BME280;32023;44.444;26.006;2023-03-21T14:06:12;100110.97;;;18.85;38.34
46291;BME280;32023;44.444;26.006;2023-03-21T14:08:42;100106.50;;;18.75;38.48
46291;BME280;32023;44.444;26.006;2023-03-21T14:11:40;100098.44;;;18.65;38.52
46291;BME280;32023;44.444;26.006;2023-03-21T14:14:57;100097.25;;;18.58;38.94
46291;BME280;32023;44.444;26.006;2023-03-21T14:23:41;100099.63;;;18.28;39.23
46291;BME280;32023;44.444;26.006;2023-03-21T14:42:56;100111.53;;;17.62;40.98
46291;BME280;32023;44.444;26.006;2023-03-21T15:05:40;100112.25;;;17.27;43.03
46291;BME280;32023;44.444;26.006;2023-03-21T15:11:34;100115.47;;;17.20;43.24
46291;BME280;32023;44.444;26.006;2023-03-21T15:26:32;100106.09;;;17.03;43.18
46291;BME280;32023;44.444;26.006;2023-03-21T15:29:24;100109.16;;;17.01;43.33
46291;BME280;32023;44.444;26.006;2023-03-21T15:32:19;100105.34;;;16.97;43.63
46291;BME280;32023;44.444;26.006;2023-03-21T15:34:49;100099.66;;;16.89;43.99
46291;BME280;32023;44.444;26.006;2023-03-21T15:37:26;100105.97;;;16.80;44.52
46291;BME280;32023;44.444;26.006;2023-03-21T15:51:46;100100.41;;;16.48;48.05
46291;BME280;32023;44.444;26.006;2023-03-21T16:00:28;100105.88;;;16.21;50.20
46291;BME280;32023;44.444;26.006;2023-03-21T16:02:58;100098.56;;;16.11;50.48
46291;BME280;32023;44.444;26.006;2023-03-21T16:11:25;100090.63;;;15.86;51.50
46291;BME280;32023;44.444;26.006;2023-03-21T16:13:54;100095.94;;;15.82;51.66
46291;BME280;32023;44.444;26.006;2023-03-21T16:19:33;100098.47;;;15.79;51.91
46291;BME280;32023;44.444;26.006;2023-03-21T16:24:46;100106.38;;;15.72;52.52
46291;BME280;32023;44.444;26.006;2023-03-21T16:29:54;100108.31;;;15.71;52.45
46291;BME280;32023;44.444;26.006;2023-03-21T16:32:24;100119.75;;;15.70;52.37
46291;BME280;32023;44.444;26.006;2023-03-21T16:37:59;100120.91;;;15.64;53.12
46291;BME280;32023;44.444;26.006;2023-03-21T16:40:43;100127.38;;;15.59;53.14
46291;BME280;32023;44.444;26.006;2023-03-21T17:04:12;100139.78;;;15.43;52.54
46291;BME280;32023;44.444;26.006;2023-03-21T17:09:45;100140.16;;;15.36;52.78
46291;BME280;32023;44.444;26.006;2023-03-21T17:12:20;100137.88;;;15.38;52.67
46291;BME280;32023;44.444;26.006;2023-03-21T17:14:59;100139.56;;;15.39;52.54
46291;BME280;32023;44.444;26.006;2023-03-21T17:25:44;100145.22;;;15.29;52.60
46291;BME280;32023;44.444;26.006;2023-03-21T17:28:17;100147.47;;;15.27;52.47
46291;BME280;32023;44.444;26.006;2023-03-21T17:30:47;100151.34;;;15.26;52.66
46291;BME280;32023;44.444;26.006;2023-03-21T17:33:14;100156.38;;;15.24;52.51
46291;BME280;32023;44.444;26.006;2023-03-21T17:35:40;100159.16;;;15.24;52.56
46291;BME280;32023;44.444;26.006;2023-03-21T17:38:09;100153.66;;;15.19;52.76
46291;BME280;32023;44.444;26.006;2023-03-21T17:40:40;100164.53;;;15.16;52.88
46291;BME280;32023;44.444;26.006;2023-03-21T17:43:09;100159.03;;;15.11;53.23
46291;BME280;32023;44.444;26.006;2023-03-21T17:45:50;100164.34;;;15.07;53.47
46291;BME280;32023;44.444;26.006;2023-03-21T17:48:31;100168.25;;;15.06;53.50
46291;BME280;32023;44.444;26.006;2023-03-21T18:09:38;100156.88;;;14.79;55.99
46291;BME280;32023;44.444;26.006;2023-03-21T18:12:07;100156.88;;;14.79;56.10
46291;BME280;32023;44.444;26.006;2023-03-21T18:14:36;100149.91;;;14.81;56.08
46291;BME280;32023;44.444;26.006;2023-03-21T18:17:04;100156.88;;;14.79;56.73
46291;BME280;32023;44.444;26.006;2023-03-21T18:19:38;100158.53;;;14.80;56.83
46291;BME280;32023;44.444;26.006;2023-03-21T18:28:26;100165.78;;;14.76;57.77
46291;BME280;32023;44.444;26.006;2023-03-21T18:39:49;100165.00;;;14.70;58.92
46291;BME280;32023;44.444;26.006;2023-03-21T18:42:21;100166.41;;;14.68;58.93
46291;BME280;32023;44.444;26.006;2023-03-21T18:59:52;100164.94;;;14.46;59.69
46291;BME280;32023;44.444;26.006;2023-03-21T19:02:52;100164.94;;;14.46;59.67
46291;BME280;32023;44.444;26.006;2023-03-21T19:11:28;100171.69;;;14.35;59.43
46291;BME280;32023;44.444;26.006;2023-03-21T19:16:52;100175.00;;;14.32;59.27
46291;BME280;32023;44.444;26.006;2023-03-21T19:19:19;100176.44;;;14.25;59.36
46291;BME280;32023;44.444;26.006;2023-03-21T19:21:55;100167.88;;;14.21;59.31
46291;BME280;32023;44.444;26.006;2023-03-21T19:24:29;100173.44;;;14.16;59.14
46291;BME280;32023;44.444;26.006;2023-03-21T19:26:56;100175.69;;;14.14;59.23
46291;BME280;32023;44.444;26.006;2023-03-21T19:29:25;100171.84;;;14.10;59.13
46291;BME280;32023;44.444;26.006;2023-03-21T19:31:57;100173.84;;;14.05;59.34
46291;BME280;32023;44.444;26.006;2023-03-21T19:34:26;100175.81;;;13.99;59.42
46291;BME280;32023;44.444;26.006;2023-03-21T19:37:03;100169.44;;;13.98;59.24
46291;BME280;32023;44.444;26.006;2023-03-21T19:39:29;100168.34;;;13.94;59.32
46291;BME280;32023;44.444;26.006;2023-03-21T19:41:58;100174.19;;;13.93;59.10
46291;BME280;32023;44.444;26.006;2023-03-21T19:44:29;100178.34;;;13.90;59.19
46291;BME280;32023;44.444;26.006;2023-03-21T19:47:12;100176.16;;;13.87;59.11
46291;BME280;32023;44.444;26.006;2023-03-21T19:53:06;100177.56;;;13.85;59.10
46291;BME280;32023;44.444;26.006;2023-03-21T19:55:41;100173.97;;;13.84;59.00
46291;BME280;32023;44.444;26.006;2023-03-21T19:58:13;100182.25;;;13.84;58.95
46291;BME280;32023;44.444;26.006;2023-03-21T20:03:14;100180.91;;;13.82;59.04
46291;BME280;32023;44.444;26.006;2023-03-21T20:05:41;100191.41;;;13.80;59.06
46291;BME280;32023;44.444;26.006;2023-03-21T20:08:07;100194.19;;;13.80;58.67
46291;BME280;32023;44.444;26.006;2023-03-21T20:10:34;100186.19;;;13.78;58.28
46291;BME280;32023;44.444;26.006;2023-03-21T20:13:07;100189.81;;;13.74;58.01
46291;BME280;32023;44.444;26.006;2023-03-21T20:15:39;100188.13;;;13.73;58.01
46291;BME280;32023;44.444;26.006;2023-03-21T20:18:11;100188.72;;;13.70;57.87
46291;BME280;32023;44.444;26.006;2023-03-21T20:20:40;100185.69;;;13.66;58.10
46291;BME280;32023;44.444;26.006;2023-03-21T20:26:15;100190.38;;;13.66;58.08
46291;BME280;32023;44.444;26.006;2023-03-21T20:28:47;100183.75;;;13.67;58.14
46291;BME280;32023;44.444;26.006;2023-03-21T20:31:21;100194.81;;;13.67;58.34
46291;BME280;32023;44.444;26.006;2023-03-21T20:33:49;100187.06;;;13.64;58.42
46291;BME280;32023;44.444;26.006;2023-03-21T20:36:17;100190.41;;;13.61;58.81
46291;BME280;32023;44.444;26.006;2023-03-21T20:39:06;100192.38;;;13.55;58.91
46291;BME280;32023;44.444;26.006;2023-03-21T20:41:38;100192.38;;;13.55;58.99
46291;BME280;32023;44.444;26.006;2023-03-21T20:44:22;100185.75;;;13.51;59.13
46291;BME280;32023;44.444;26.006;2023-03-21T20:50:09;100186.34;;;13.48;59.64
46291;BME280;32023;44.444;26.006;2023-03-21T20:52:57;100187.13;;;13.48;59.65
46291;BME280;32023;44.444;26.006;2023-03-21T20:55:27;100184.66;;;13.47;59.91
46291;BME280;32023;44.444;26.006;2023-03-21T20:58:31;100189.94;;;13.43;60.12
46291;BME280;32023;44.444;26.006;2023-03-21T21:00:56;100181.13;;;13.36;60.69
46291;BME280;32023;44.444;26.006;2023-03-21T21:03:29;100191.06;;;13.37;60.83
46291;BME280;32023;44.444;26.006;2023-03-21T21:05:58;100195.75;;;13.37;61.16
46291;BME280;32023;44.444;26.006;2023-03-21T21:11:52;100198.81;;;13.35;61.75
46291;BME280;32023;44.444;26.006;2023-03-21T21:14:18;100191.34;;;13.36;61.64
46291;BME280;32023;44.444;26.006;2023-03-21T21:19:45;100194.69;;;13.33;62.13
46291;BME280;32023;44.444;26.006;2023-03-21T21:22:24;100196.63;;;13.32;62.35
46291;BME280;32023;44.444;26.006;2023-03-21T21:24:53;100205.50;;;13.29;62.63
46291;BME280;32023;44.444;26.006;2023-03-21T21:27:21;100196.63;;;13.27;62.78
46291;BME280;32023;44.444;26.006;2023-03-21T21:29:48;100210.50;;;13.17;63.54
46291;BME280;32023;44.444;26.006;2023-03-21T21:32:17;100212.44;;;13.12;63.95
46291;BME280;32023;44.444;26.006;2023-03-21T21:34:50;100203.31;;;13.11;64.18
46291;BME280;32023;44.444;26.006;2023-03-21T21:37:17;100202.78;;;13.14;63.81
46291;BME280;32023;44.444;26.006;2023-03-21T21:39:43;100206.06;;;13.16;64.33
46291;BME280;32023;44.444;26.006;2023-03-21T21:42:10;100214.63;;;13.20;64.39
46291;BME280;32023;44.444;26.006;2023-03-21T21:44:41;100214.34;;;13.21;64.51
46291;BME280;32023;44.444;26.006;2023-03-21T21:47:10;100213.22;;;13.22;64.34
46291;BME280;32023;44.444;26.006;2023-03-21T21:49:37;100219.59;;;13.23;64.38
46291;BME280;32023;44.444;26.006;2023-03-21T21:52:04;100223.19;;;13.23;64.43
46291;BME280;32023;44.444;26.006;2023-03-21T21:54:30;100219.31;;;13.24;64.54
46291;BME280;32023;44.444;26.006;2023-03-21T21:56:59;100222.63;;;13.26;64.89
46291;BME280;32023;44.444;26.006;2023-03-21T21:59:26;100224.28;;;13.22;64.80
46291;BME280;32023;44.444;26.006;2023-03-21T22:01:52;100218.78;;;13.17;65.15
46291;BME280;32023;44.444;26.006;2023-03-21T22:04:19;100221.28;;;13.14;65.03
46291;BME280;32023;44.444;26.006;2023-03-21T22:06:53;100228.72;;;13.08;65.33